sensor_id;sensor_type;location;lat;lon;timestamp;P1;durP1;ratioP1;P2;durP2;ratioP2
76631;SDS011;65526;48.578;-4.520;2023-03-01T00:01:11;1.75;;;0.88;;
76631;SDS011;65526;48.578;-4.520;2023-03-01T00:03:41;2.15;;;1.30;;
76631;SDS011;65526;48.578;-4.520;2023-03-01T00:06:07;1.25;;;0.80;;
76631;SDS011;65526;48.578;-4.520;2023-03-01T00:08:34;3.95;;;1.30;;
76631;SDS011;65526;48.578;-4.520;2023-03-01T00:13:33;3.63;;;1.45;;
76631;SDS011;65526;48.578;-4.520;2023-03-01T00:16:04;5.82;;;2.20;;
76631;SDS011;65526;48.578;-4.520;2023-03-01T00:18:31;3.45;;;1.38;;
76631;SDS011;65526;48.578;-4.520;2023-03-01T00:20:57;1.88;;;0.90;;
76631;SDS011;65526;48.578;-4.520;2023-03-01T00:23:24;2.85;;;0.90;;
76631;SDS011;65526;48.578;-4.520;2023-03-01T00:25:51;2.38;;;1.10;;
76631;SDS011;65526;48.578;-4.520;2023-03-01T00:28:18;4.00;;;1.75;;
76631;SDS011;65526;48.578;-4.520;2023-03-01T00:30:46;6.15;;;1.73;;
76631;SDS011;65526;48.578;-4.520;2023-03-01T00:33:12;3.65;;;1.50;;
76631;SDS011;65526;48.578;-4.520;2023-03-01T00:35:39;3.65;;;1.23;;
76631;SDS011;65526;48.578;-4.520;2023-03-01T00:38:06;5.32;;;1.80;;
76631;SDS011;65526;48.578;-4.520;2023-03-01T00:40:33;2.17;;;1.70;;
76631;SDS011;65526;48.578;-4.520;2023-03-01T00:43:01;4.32;;;1.58;;
76631;SDS011;65526;48.578;-4.520;2023-03-01T00:45:28;2.58;;;1.42;;
76631;SDS011;65526;48.578;-4.520;2023-03-01T00:47:58;4.97;;;1.70;;
76631;SDS011;65526;48.578;-4.520;2023-03-01T00:50:24;3.20;;;1.60;;
76631;SDS011;65526;48.578;-4.520;2023-03-01T00:52:54;2.33;;;1.83;;
76631;SDS011;65526;48.578;-4.520;2023-03-01T00:55:21;3.65;;;1.52;;
76631;SDS011;65526;48.578;-4.520;2023-03-01T00:57:48;3.45;;;1.60;;
76631;SDS011;65526;48.578;-4.520;2023-03-01T01:00:15;5.55;;;1.73;;
76631;SDS011;65526;48.578;-4.520;2023-03-01T01:02:42;4.30;;;1.60;;
76631;SDS011;65526;48.578;-4.520;2023-03-01T01:05:09;2.53;;;1.65;;
76631;SDS011;65526;48.578;-4.520;2023-03-01T01:07:36;5.55;;;2.35;;
76631;SDS011;65526;48.578;-4.520;2023-03-01T01:10:03;4.10;;;1.50;;
76631;SDS011;65526;48.578;-4.520;2023-03-01T01:12:30;3.97;;;1.70;;
76631;SDS011;65526;48.578;-4.520;2023-03-01T01:14:57;2.35;;;1.58;;
76631;SDS011;65526;48.578;-4.520;2023-03-01T01:17:24;5.35;;;1.65;;
76631;SDS011;65526;48.578;-4.520;2023-03-01T01:19:50;3.75;;;2.10;;
76631;SDS011;65526;48.578;-4.520;2023-03-01T01:22:17;3.78;;;2.13;;
76631;SDS011;65526;48.578;-4.520;2023-03-01T01:24:43;9.88;;;2.88;;
76631;SDS011;65526;48.578;-4.520;2023-03-01T01:27:10;5.07;;;2.90;;
76631;SDS011;65526;48.578;-4.520;2023-03-01T01:29:36;10.77;;;4.80;;
76631;SDS011;65526;48.578;-4.520;2023-03-01T01:32:03;10.80;;;5.97;;
76631;SDS011;65526;48.578;-4.520;2023-03-01T01:34:30;10.60;;;6.45;;
76631;SDS011;65526;48.578;-4.520;2023-03-01T01:36:57;11.80;;;7.38;;
76631;SDS011;65526;48.578;-4.520;2023-03-01T01:39:24;11.25;;;6.95;;
76631;SDS011;65526;48.578;-4.520;2023-03-01T01:41:50;12.57;;;7.88;;
76631;SDS011;65526;48.578;-4.520;2023-03-01T01:44:21;14.50;;;7.95;;
76631;SDS011;65526;48.578;-4.520;2023-03-01T01:46:52;11.27;;;6.90;;
76631;SDS011;65526;48.578;-4.520;2023-03-01T01:49:24;12.20;;;7.82;;
76631;SDS011;65526;48.578;-4.520;2023-03-01T01:52:09;14.95;;;8.40;;
76631;SDS011;65526;48.578;-4.520;2023-03-01T01:54:51;11.95;;;8.60;;
76631;SDS011;65526;48.578;-4.520;2023-03-01T01:57:26;14.88;;;8.95;;
76631;SDS011;65526;48.578;-4.520;2023-03-01T02:00:05;17.92;;;8.52;;
76631;SDS011;65526;48.578;-4.520;2023-03-01T02:02:39;14.90;;;8.50;;
76631;SDS011;65526;48.578;-4.520;2023-03-01T02:05:17;13.77;;;8.85;;
76631;SDS011;65526;48.578;-4.520;2023-03-01T02:07:50;14.27;;;9.90;;
76631;SDS011;65526;48.578;-4.520;2023-03-01T02:10:19;17.27;;;8.90;;
76631;SDS011;65526;48.578;-4.520;2023-03-01T02:12:47;16.85;;;9.38;;
76631;SDS011;65526;48.578;-4.520;2023-03-01T02:15:13;11.98;;;8.43;;
76631;SDS011;65526;48.578;-4.520;2023-03-01T02:17:41;14.98;;;9.35;;
76631;SDS011;65526;48.578;-4.520;2023-03-01T02:23:03;18.20;;;10.07;;
76631;SDS011;65526;48.578;-4.520;2023-03-01T02:30:43;20.10;;;11.90;;
76631;SDS011;65526;48.578;-4.520;2023-03-01T02:33:31;20.05;;;12.20;;
76631;SDS011;65526;48.578;-4.520;2023-03-01T02:36:03;18.70;;;11.35;;
76631;SDS011;65526;48.578;-4.520;2023-03-01T02:38:32;18.88;;;11.35;;
76631;SDS011;65526;48.578;-4.520;2023-03-01T02:40:59;17.15;;;11.38;;
76631;SDS011;65526;48.578;-4.520;2023-03-01T02:43:29;20.20;;;12.35;;
76631;SDS011;65526;48.578;-4.520;2023-03-01T02:48:24;20.10;;;12.05;;
76631;SDS011;65526;48.578;-4.520;2023-03-01T02:53:45;20.35;;;12.15;;
76631;SDS011;65526;48.578;-4.520;2023-03-01T02:59:04;22.63;;;11.25;;
76631;SDS011;65526;48.578;-4.520;2023-03-01T03:01:31;19.58;;;11.70;;
76631;SDS011;65526;48.578;-4.520;2023-03-01T03:04:06;23.25;;;13.02;;
76631;SDS011;65526;48.578;-4.520;2023-03-01T03:06:34;21.60;;;12.82;;
76631;SDS011;65526;48.578;-4.520;2023-03-01T03:09:00;22.15;;;12.65;;
76631;SDS011;65526;48.578;-4.520;2023-03-01T03:11:27;24.20;;;13.77;;
76631;SDS011;65526;48.578;-4.520;2023-03-01T03:13:54;22.95;;;14.02;;
76631;SDS011;65526;48.578;-4.520;2023-03-01T03:16:20;22.67;;;13.52;;
76631;SDS011;65526;48.578;-4.520;2023-03-01T03:18:47;22.23;;;12.98;;
76631;SDS011;65526;48.578;-4.520;2023-03-01T03:21:14;20.50;;;12.57;;
76631;SDS011;65526;48.578;-4.520;2023-03-01T03:23:41;23.23;;;12.60;;
76631;SDS011;65526;48.578;-4.520;2023-03-01T03:26:07;23.40;;;13.30;;
76631;SDS011;65526;48.578;-4.520;2023-03-01T03:28:35;24.63;;;12.82;;
76631;SDS011;65526;48.578;-4.520;2023-03-01T03:31:06;23.80;;;12.77;;
76631;SDS011;65526;48.578;-4.520;2023-03-01T03:33:33;19.90;;;12.38;;
76631;SDS011;65526;48.578;-4.520;2023-03-01T03:36:00;24.92;;;13.52;;
76631;SDS011;65526;48.578;-4.520;2023-03-01T03:38:26;22.25;;;13.25;;
76631;SDS011;65526;48.578;-4.520;2023-03-01T03:41:03;24.08;;;12.95;;
76631;SDS011;65526;48.578;-4.520;2023-03-01T03:43:33;23.60;;;12.82;;
76631;SDS011;65526;48.578;-4.520;2023-03-01T03:46:01;25.60;;;13.30;;
76631;SDS011;65526;48.578;-4.520;2023-03-01T03:48:36;21.25;;;12.82;;
76631;SDS011;65526;48.578;-4.520;2023-03-01T03:51:05;20.50;;;12.82;;
76631;SDS011;65526;48.578;-4.520;2023-03-01T03:53:32;22.55;;;12.70;;
76631;SDS011;65526;48.578;-4.520;2023-03-01T03:55:58;22.52;;;12.20;;
76631;SDS011;65526;48.578;-4.520;2023-03-01T03:58:25;25.15;;;12.82;;
76631;SDS011;65526;48.578;-4.520;2023-03-01T04:00:53;22.13;;;13.50;;
76631;SDS011;65526;48.578;-4.520;2023-03-01T04:03:24;20.77;;;12.57;;
76631;SDS011;65526;48.578;-4.520;2023-03-01T04:05:53;20.85;;;12.90;;
76631;SDS011;65526;48.578;-4.520;2023-03-01T04:08:20;20.38;;;12.35;;
76631;SDS011;65526;48.578;-4.520;2023-03-01T04:10:49;22.88;;;12.52;;
76631;SDS011;65526;48.578;-4.520;2023-03-01T04:13:20;21.48;;;12.18;;
76631;SDS011;65526;48.578;-4.520;2023-03-01T04:15:51;21.58;;;12.32;;
76631;SDS011;65526;48.578;-4.520;2023-03-01T04:18:22;24.67;;;13.98;;
76631;SDS011;65526;48.578;-4.520;2023-03-01T04:20:51;21.88;;;13.15;;
76631;SDS011;65526;48.578;-4.520;2023-03-01T04:23:21;19.75;;;12.43;;
76631;SDS011;65526;48.578;-4.520;2023-03-01T04:28:22;19.95;;;12.05;;
76631;SDS011;65526;48.578;-4.520;2023-03-01T04:30:57;20.85;;;12.80;;
76631;SDS011;65526;48.578;-4.520;2023-03-01T04:33:24;22.40;;;13.95;;
76631;SDS011;65526;48.578;-4.520;2023-03-01T04:35:51;20.08;;;13.00;;
76631;SDS011;65526;48.578;-4.520;2023-03-01T04:38:18;20.85;;;12.77;;
76631;SDS011;65526;48.578;-4.520;2023-03-01T04:40:46;20.33;;;12.35;;
76631;SDS011;65526;48.578;-4.520;2023-03-01T04:43:13;22.77;;;12.68;;
76631;SDS011;65526;48.578;-4.520;2023-03-01T04:45:43;19.40;;;11.38;;
76631;SDS011;65526;48.578;-4.520;2023-03-01T04:48:09;21.42;;;12.85;;
76631;SDS011;65526;48.578;-4.520;2023-03-01T04:50:36;21.42;;;11.82;;
76631;SDS011;65526;48.578;-4.520;2023-03-01T04:53:02;19.83;;;11.80;;
76631;SDS011;65526;48.578;-4.520;2023-03-01T04:55:29;19.75;;;11.63;;
76631;SDS011;65526;48.578;-4.520;2023-03-01T04:57:55;17.95;;;11.80;;
76631;SDS011;65526;48.578;-4.520;2023-03-01T05:00:22;17.77;;;10.95;;
76631;SDS011;65526;48.578;-4.520;2023-03-01T05:02:50;17.80;;;11.60;;
76631;SDS011;65526;48.578;-4.520;2023-03-01T05:05:42;19.08;;;11.02;;
76631;SDS011;65526;48.578;-4.520;2023-03-01T05:08:10;17.85;;;11.25;;
76631;SDS011;65526;48.578;-4.520;2023-03-01T05:10:47;18.50;;;10.70;;
76631;SDS011;65526;48.578;-4.520;2023-03-01T05:13:16;18.35;;;10.75;;
76631;SDS011;65526;48.578;-4.520;2023-03-01T05:15:53;15.52;;;10.93;;
76631;SDS011;65526;48.578;-4.520;2023-03-01T05:18:21;19.55;;;11.30;;
76631;SDS011;65526;48.578;-4.520;2023-03-01T05:20:52;20.15;;;10.82;;
76631;SDS011;65526;48.578;-4.520;2023-03-01T05:23:22;15.55;;;10.70;;
76631;SDS011;65526;48.578;-4.520;2023-03-01T05:25:49;21.45;;;11.38;;
76631;SDS011;65526;48.578;-4.520;2023-03-01T05:28:18;18.00;;;10.90;;
76631;SDS011;65526;48.578;-4.520;2023-03-01T05:30:45;15.52;;;9.88;;
76631;SDS011;65526;48.578;-4.520;2023-03-01T05:33:12;14.65;;;9.93;;
76631;SDS011;65526;48.578;-4.520;2023-03-01T05:35:39;17.45;;;10.93;;
76631;SDS011;65526;48.578;-4.520;2023-03-01T05:38:08;15.48;;;9.73;;
76631;SDS011;65526;48.578;-4.520;2023-03-01T05:40:39;17.27;;;11.18;;
76631;SDS011;65526;48.578;-4.520;2023-03-01T05:43:07;17.65;;;11.02;;
76631;SDS011;65526;48.578;-4.520;2023-03-01T05:45:35;15.15;;;10.30;;
76631;SDS011;65526;48.578;-4.520;2023-03-01T05:48:03;14.68;;;10.00;;
76631;SDS011;65526;48.578;-4.520;2023-03-01T05:50:35;15.60;;;9.95;;
76631;SDS011;65526;48.578;-4.520;2023-03-01T05:53:03;13.77;;;9.13;;
76631;SDS011;65526;48.578;-4.520;2023-03-01T05:55:36;13.60;;;9.57;;
76631;SDS011;65526;48.578;-4.520;2023-03-01T05:58:04;16.80;;;10.50;;
76631;SDS011;65526;48.578;-4.520;2023-03-01T06:00:42;18.70;;;12.05;;
76631;SDS011;65526;48.578;-4.520;2023-03-01T06:03:10;15.10;;;9.40;;
76631;SDS011;65526;48.578;-4.520;2023-03-01T06:05:40;16.13;;;9.93;;
76631;SDS011;65526;48.578;-4.520;2023-03-01T06:08:06;16.90;;;10.93;;
76631;SDS011;65526;48.578;-4.520;2023-03-01T06:10:35;13.88;;;9.30;;
76631;SDS011;65526;48.578;-4.520;2023-03-01T06:13:01;17.02;;;10.20;;
76631;SDS011;65526;48.578;-4.520;2023-03-01T06:15:28;14.93;;;9.48;;
76631;SDS011;65526;48.578;-4.520;2023-03-01T06:17:55;16.92;;;9.65;;
76631;SDS011;65526;48.578;-4.520;2023-03-01T06:22:51;15.32;;;8.48;;
76631;SDS011;65526;48.578;-4.520;2023-03-01T06:25:19;14.80;;;8.68;;
76631;SDS011;65526;48.578;-4.520;2023-03-01T06:27:47;15.63;;;9.70;;
76631;SDS011;65526;48.578;-4.520;2023-03-01T06:30:15;14.07;;;9.70;;
76631;SDS011;65526;48.578;-4.520;2023-03-01T06:32:43;13.20;;;8.82;;
76631;SDS011;65526;48.578;-4.520;2023-03-01T06:35:10;15.85;;;10.10;;
76631;SDS011;65526;48.578;-4.520;2023-03-01T06:37:37;17.05;;;9.32;;
76631;SDS011;65526;48.578;-4.520;2023-03-01T06:40:04;16.52;;;9.43;;
76631;SDS011;65526;48.578;-4.520;2023-03-01T06:42:35;14.25;;;8.85;;
76631;SDS011;65526;48.578;-4.520;2023-03-01T06:45:02;12.90;;;8.50;;
76631;SDS011;65526;48.578;-4.520;2023-03-01T06:47:29;16.77;;;8.80;;
76631;SDS011;65526;48.578;-4.520;2023-03-01T06:49:55;14.32;;;9.90;;
76631;SDS011;65526;48.578;-4.520;2023-03-01T06:52:22;14.02;;;9.50;;
76631;SDS011;65526;48.578;-4.520;2023-03-01T06:54:48;15.52;;;9.27;;
76631;SDS011;65526;48.578;-4.520;2023-03-01T06:57:14;15.23;;;9.00;;
76631;SDS011;65526;48.578;-4.520;2023-03-01T06:59:41;14.80;;;9.73;;
76631;SDS011;65526;48.578;-4.520;2023-03-01T07:02:09;18.52;;;10.32;;
76631;SDS011;65526;48.578;-4.520;2023-03-01T07:04:39;14.57;;;9.27;;
76631;SDS011;65526;48.578;-4.520;2023-03-01T07:07:06;15.45;;;9.02;;
76631;SDS011;65526;48.578;-4.520;2023-03-01T07:09:32;13.95;;;9.30;;
76631;SDS011;65526;48.578;-4.520;2023-03-01T07:11:59;16.88;;;10.57;;
76631;SDS011;65526;48.578;-4.520;2023-03-01T07:14:25;16.45;;;10.35;;
76631;SDS011;65526;48.578;-4.520;2023-03-01T07:16:53;18.00;;;9.80;;
76631;SDS011;65526;48.578;-4.520;2023-03-01T07:19:20;13.32;;;9.32;;
76631;SDS011;65526;48.578;-4.520;2023-03-01T07:21:47;14.55;;;9.13;;
76631;SDS011;65526;48.578;-4.520;2023-03-01T07:24:14;13.30;;;8.65;;
76631;SDS011;65526;48.578;-4.520;2023-03-01T07:26:41;14.88;;;9.60;;
76631;SDS011;65526;48.578;-4.520;2023-03-01T07:29:07;15.77;;;10.05;;
76631;SDS011;65526;48.578;-4.520;2023-03-01T07:31:36;17.67;;;9.95;;
76631;SDS011;65526;48.578;-4.520;2023-03-01T07:34:02;18.23;;;8.75;;
76631;SDS011;65526;48.578;-4.520;2023-03-01T07:36:29;15.48;;;9.27;;
76631;SDS011;65526;48.578;-4.520;2023-03-01T07:38:55;15.45;;;9.45;;
76631;SDS011;65526;48.578;-4.520;2023-03-01T07:41:21;15.50;;;9.93;;
76631;SDS011;65526;48.578;-4.520;2023-03-01T07:43:48;14.25;;;9.57;;
76631;SDS011;65526;48.578;-4.520;2023-03-01T07:46:14;15.05;;;9.68;;
76631;SDS011;65526;48.578;-4.520;2023-03-01T07:48:40;15.60;;;9.77;;
76631;SDS011;65526;48.578;-4.520;2023-03-01T07:51:07;15.65;;;9.75;;
76631;SDS011;65526;48.578;-4.520;2023-03-01T07:53:33;16.67;;;9.88;;
76631;SDS011;65526;48.578;-4.520;2023-03-01T07:56:01;15.02;;;9.38;;
76631;SDS011;65526;48.578;-4.520;2023-03-01T07:58:31;13.20;;;8.90;;
76631;SDS011;65526;48.578;-4.520;2023-03-01T08:01:04;16.45;;;9.00;;
76631;SDS011;65526;48.578;-4.520;2023-03-01T08:03:32;14.60;;;9.23;;
76631;SDS011;65526;48.578;-4.520;2023-03-01T08:06:00;16.67;;;9.25;;
76631;SDS011;65526;48.578;-4.520;2023-03-01T08:08:27;15.32;;;9.18;;
76631;SDS011;65526;48.578;-4.520;2023-03-01T08:10:57;13.10;;;8.40;;
76631;SDS011;65526;48.578;-4.520;2023-03-01T08:13:24;12.27;;;8.13;;
76631;SDS011;65526;48.578;-4.520;2023-03-01T08:15:51;14.85;;;9.65;;
76631;SDS011;65526;48.578;-4.520;2023-03-01T08:18:18;14.02;;;8.60;;
76631;SDS011;65526;48.578;-4.520;2023-03-01T08:20:46;13.20;;;8.48;;
76631;SDS011;65526;48.578;-4.520;2023-03-01T08:23:13;13.13;;;8.27;;
76631;SDS011;65526;48.578;-4.520;2023-03-01T08:25:40;23.67;;;9.77;;
76631;SDS011;65526;48.578;-4.520;2023-03-01T08:28:06;12.88;;;8.60;;
76631;SDS011;65526;48.578;-4.520;2023-03-01T08:30:33;12.80;;;8.60;;
76631;SDS011;65526;48.578;-4.520;2023-03-01T08:33:00;14.43;;;9.60;;
76631;SDS011;65526;48.578;-4.520;2023-03-01T08:35:26;11.57;;;8.00;;
76631;SDS011;65526;48.578;-4.520;2023-03-01T08:37:53;12.07;;;8.75;;
76631;SDS011;65526;48.578;-4.520;2023-03-01T08:40:19;13.23;;;8.50;;
76631;SDS011;65526;48.578;-4.520;2023-03-01T08:42:46;16.08;;;9.15;;
76631;SDS011;65526;48.578;-4.520;2023-03-01T08:45:12;15.50;;;9.45;;
76631;SDS011;65526;48.578;-4.520;2023-03-01T08:47:44;13.15;;;8.45;;
76631;SDS011;65526;48.578;-4.520;2023-03-01T08:50:11;13.25;;;8.48;;
76631;SDS011;65526;48.578;-4.520;2023-03-01T08:52:37;13.40;;;7.93;;
76631;SDS011;65526;48.578;-4.520;2023-03-01T08:55:04;15.73;;;8.80;;
76631;SDS011;65526;48.578;-4.520;2023-03-01T08:57:31;14.15;;;8.30;;
76631;SDS011;65526;48.578;-4.520;2023-03-01T08:59:57;14.70;;;8.27;;
76631;SDS011;65526;48.578;-4.520;2023-03-01T09:02:23;11.55;;;7.75;;
76631;SDS011;65526;48.578;-4.520;2023-03-01T09:04:50;12.30;;;8.40;;
76631;SDS011;65526;48.578;-4.520;2023-03-01T09:07:16;14.70;;;8.35;;
76631;SDS011;65526;48.578;-4.520;2023-03-01T09:09:43;13.13;;;8.48;;
76631;SDS011;65526;48.578;-4.520;2023-03-01T09:12:09;12.32;;;8.20;;
76631;SDS011;65526;48.578;-4.520;2023-03-01T09:14:36;13.30;;;7.97;;
76631;SDS011;65526;48.578;-4.520;2023-03-01T09:17:04;12.27;;;7.32;;
76631;SDS011;65526;48.578;-4.520;2023-03-01T09:19:31;13.75;;;8.13;;
76631;SDS011;65526;48.578;-4.520;2023-03-01T09:21:57;13.15;;;8.55;;
76631;SDS011;65526;48.578;-4.520;2023-03-01T09:24:24;14.15;;;8.82;;
76631;SDS011;65526;48.578;-4.520;2023-03-01T09:26:52;11.75;;;8.13;;
76631;SDS011;65526;48.578;-4.520;2023-03-01T09:29:21;14.60;;;8.55;;
76631;SDS011;65526;48.578;-4.520;2023-03-01T09:31:47;14.27;;;8.95;;
76631;SDS011;65526;48.578;-4.520;2023-03-01T09:34:14;14.55;;;8.13;;
76631;SDS011;65526;48.578;-4.520;2023-03-01T09:36:41;14.13;;;8.32;;
76631;SDS011;65526;48.578;-4.520;2023-03-01T09:39:08;12.88;;;8.85;;
76631;SDS011;65526;48.578;-4.520;2023-03-01T09:44:23;12.88;;;7.93;;
76631;SDS011;65526;48.578;-4.520;2023-03-01T09:46:55;11.82;;;8.00;;
76631;SDS011;65526;48.578;-4.520;2023-03-01T09:49:24;12.50;;;6.97;;
76631;SDS011;65526;48.578;-4.520;2023-03-01T09:54:55;10.20;;;7.50;;
76631;SDS011;65526;48.578;-4.520;2023-03-01T10:00:25;11.13;;;7.25;;
76631;SDS011;65526;48.578;-4.520;2023-03-01T10:08:39;15.13;;;8.40;;
76631;SDS011;65526;48.578;-4.520;2023-03-01T10:11:20;15.15;;;8.50;;
76631;SDS011;65526;48.578;-4.520;2023-03-01T10:19:11;12.43;;;7.95;;
76631;SDS011;65526;48.578;-4.520;2023-03-01T10:21:44;13.80;;;8.13;;
76631;SDS011;65526;48.578;-4.520;2023-03-01T10:24:13;15.70;;;8.63;;
76631;SDS011;65526;48.578;-4.520;2023-03-01T10:26:44;13.23;;;8.15;;
76631;SDS011;65526;48.578;-4.520;2023-03-01T10:29:18;14.80;;;7.90;;
76631;SDS011;65526;48.578;-4.520;2023-03-01T10:31:52;11.50;;;7.88;;
76631;SDS011;65526;48.578;-4.520;2023-03-01T10:34:30;15.55;;;9.02;;
76631;SDS011;65526;48.578;-4.520;2023-03-01T10:42:33;17.20;;;9.88;;
76631;SDS011;65526;48.578;-4.520;2023-03-01T10:45:44;15.88;;;10.00;;
76631;SDS011;65526;48.578;-4.520;2023-03-01T10:50:43;18.65;;;10.88;;
76631;SDS011;65526;48.578;-4.520;2023-03-01T10:55:59;19.85;;;11.70;;
76631;SDS011;65526;48.578;-4.520;2023-03-01T10:58:32;25.13;;;12.85;;
76631;SDS011;65526;48.578;-4.520;2023-03-01T11:01:00;22.90;;;14.10;;
76631;SDS011;65526;48.578;-4.520;2023-03-01T11:03:33;21.73;;;13.85;;
76631;SDS011;65526;48.578;-4.520;2023-03-01T11:08:38;20.10;;;12.63;;
76631;SDS011;65526;48.578;-4.520;2023-03-01T11:16:23;18.75;;;13.27;;
76631;SDS011;65526;48.578;-4.520;2023-03-01T11:18:59;20.92;;;12.65;;
76631;SDS011;65526;48.578;-4.520;2023-03-01T11:21:57;24.75;;;13.60;;
76631;SDS011;65526;48.578;-4.520;2023-03-01T11:24:43;21.65;;;13.23;;
76631;SDS011;65526;48.578;-4.520;2023-03-01T11:27:25;23.73;;;12.77;;
76631;SDS011;65526;48.578;-4.520;2023-03-01T11:35:37;21.65;;;12.40;;
76631;SDS011;65526;48.578;-4.520;2023-03-01T11:40:47;20.38;;;12.50;;
76631;SDS011;65526;48.578;-4.520;2023-03-01T11:43:23;21.90;;;12.82;;
76631;SDS011;65526;48.578;-4.520;2023-03-01T11:46:04;27.60;;;13.65;;
76631;SDS011;65526;48.578;-4.520;2023-03-01T11:51:47;22.38;;;12.77;;
76631;SDS011;65526;48.578;-4.520;2023-03-01T12:00:02;19.95;;;12.27;;
76631;SDS011;65526;48.578;-4.520;2023-03-01T12:02:58;22.58;;;13.43;;
76631;SDS011;65526;48.578;-4.520;2023-03-01T12:05:48;21.70;;;12.95;;
76631;SDS011;65526;48.578;-4.520;2023-03-01T12:08:36;21.13;;;12.80;;
76631;SDS011;65526;48.578;-4.520;2023-03-01T12:28:18;24.08;;;13.02;;
76631;SDS011;65526;48.578;-4.520;2023-03-01T12:34:01;22.65;;;12.75;;
76631;SDS011;65526;48.578;-4.520;2023-03-01T12:39:42;21.85;;;12.75;;
76631;SDS011;65526;48.578;-4.520;2023-03-01T12:48:43;27.98;;;14.73;;
76631;SDS011;65526;48.578;-4.520;2023-03-01T12:51:08;23.35;;;13.10;;
76631;SDS011;65526;48.578;-4.520;2023-03-01T12:53:40;20.42;;;11.65;;
76631;SDS011;65526;48.578;-4.520;2023-03-01T12:56:18;24.40;;;13.52;;
76631;SDS011;65526;48.578;-4.520;2023-03-01T12:58:51;24.60;;;14.07;;
76631;SDS011;65526;48.578;-4.520;2023-03-01T13:04:17;23.92;;;12.00;;
76631;SDS011;65526;48.578;-4.520;2023-03-01T13:09:25;18.63;;;11.63;;
76631;SDS011;65526;48.578;-4.520;2023-03-01T13:12:41;17.40;;;10.15;;
76631;SDS011;65526;48.578;-4.520;2023-03-01T13:17:50;18.60;;;10.40;;
76631;SDS011;65526;48.578;-4.520;2023-03-01T13:20:20;24.98;;;11.13;;
76631;SDS011;65526;48.578;-4.520;2023-03-01T13:22:59;21.92;;;12.18;;
76631;SDS011;65526;48.578;-4.520;2023-03-01T13:31:09;24.75;;;12.27;;
76631;SDS011;65526;48.578;-4.520;2023-03-01T13:33:47;26.02;;;12.48;;
76631;SDS011;65526;48.578;-4.520;2023-03-01T13:39:00;22.00;;;11.70;;
76631;SDS011;65526;48.578;-4.520;2023-03-01T13:41:53;22.45;;;12.13;;
76631;SDS011;65526;48.578;-4.520;2023-03-01T13:44:23;22.08;;;11.88;;
76631;SDS011;65526;48.578;-4.520;2023-03-01T13:49:47;20.85;;;11.70;;
76631;SDS011;65526;48.578;-4.520;2023-03-01T13:52:42;23.25;;;12.10;;
76631;SDS011;65526;48.578;-4.520;2023-03-01T13:55:24;23.85;;;12.50;;
76631;SDS011;65526;48.578;-4.520;2023-03-01T13:57:57;22.38;;;10.98;;
76631;SDS011;65526;48.578;-4.520;2023-03-01T14:03:11;22.63;;;11.27;;
76631;SDS011;65526;48.578;-4.520;2023-03-01T14:05:44;20.30;;;12.43;;
76631;SDS011;65526;48.578;-4.520;2023-03-01T14:08:30;19.33;;;11.88;;
76631;SDS011;65526;48.578;-4.520;2023-03-01T14:19:15;22.88;;;11.80;;
76631;SDS011;65526;48.578;-4.520;2023-03-01T14:21:46;18.58;;;11.10;;
76631;SDS011;65526;48.578;-4.520;2023-03-01T14:24:22;21.65;;;11.02;;
76631;SDS011;65526;48.578;-4.520;2023-03-01T14:29:53;20.35;;;11.00;;
76631;SDS011;65526;48.578;-4.520;2023-03-01T14:32:10;21.67;;;11.68;;
76631;SDS011;65526;48.578;-4.520;2023-03-01T14:34:36;21.38;;;10.68;;
76631;SDS011;65526;48.578;-4.520;2023-03-01T14:40:19;18.60;;;10.27;;
76631;SDS011;65526;48.578;-4.520;2023-03-01T14:42:57;15.00;;;9.10;;
76631;SDS011;65526;48.578;-4.520;2023-03-01T14:45:27;19.73;;;10.23;;
76631;SDS011;65526;48.578;-4.520;2023-03-01T14:47:58;16.27;;;9.63;;
76631;SDS011;65526;48.578;-4.520;2023-03-01T14:50:29;16.10;;;10.02;;
76631;SDS011;65526;48.578;-4.520;2023-03-01T14:53:01;18.05;;;9.93;;
76631;SDS011;65526;48.578;-4.520;2023-03-01T14:55:37;20.42;;;11.05;;
76631;SDS011;65526;48.578;-4.520;2023-03-01T14:58:14;16.58;;;9.95;;
76631;SDS011;65526;48.578;-4.520;2023-03-01T15:00:52;15.32;;;9.60;;
76631;SDS011;65526;48.578;-4.520;2023-03-01T15:03:25;18.55;;;10.07;;
76631;SDS011;65526;48.578;-4.520;2023-03-01T15:06:09;19.10;;;11.18;;
76631;SDS011;65526;48.578;-4.520;2023-03-01T15:08:41;16.20;;;10.80;;
76631;SDS011;65526;48.578;-4.520;2023-03-01T15:13:40;16.73;;;10.20;;
76631;SDS011;65526;48.578;-4.520;2023-03-01T15:16:15;20.35;;;9.50;;
76631;SDS011;65526;48.578;-4.520;2023-03-01T15:19:06;15.75;;;10.07;;
76631;SDS011;65526;48.578;-4.520;2023-03-01T15:21:34;16.13;;;10.48;;
76631;SDS011;65526;48.578;-4.520;2023-03-01T15:24:15;19.10;;;9.50;;
76631;SDS011;65526;48.578;-4.520;2023-03-01T15:26:57;15.68;;;9.70;;
76631;SDS011;65526;48.578;-4.520;2023-03-01T15:29:28;18.10;;;10.70;;
76631;SDS011;65526;48.578;-4.520;2023-03-01T15:32:03;14.30;;;8.80;;
76631;SDS011;65526;48.578;-4.520;2023-03-01T15:34:32;16.20;;;9.90;;
76631;SDS011;65526;48.578;-4.520;2023-03-01T15:37:03;14.85;;;9.35;;
76631;SDS011;65526;48.578;-4.520;2023-03-01T15:39:32;16.33;;;9.20;;
76631;SDS011;65526;48.578;-4.520;2023-03-01T15:42:07;15.48;;;9.20;;
76631;SDS011;65526;48.578;-4.520;2023-03-01T15:44:41;15.48;;;9.10;;
76631;SDS011;65526;48.578;-4.520;2023-03-01T15:50:11;14.98;;;8.15;;
76631;SDS011;65526;48.578;-4.520;2023-03-01T15:52:44;9.73;;;6.93;;
76631;SDS011;65526;48.578;-4.520;2023-03-01T15:55:15;12.73;;;7.60;;
76631;SDS011;65526;48.578;-4.520;2023-03-01T15:57:46;8.70;;;6.13;;
76631;SDS011;65526;48.578;-4.520;2023-03-01T16:00:14;13.90;;;6.90;;
76631;SDS011;65526;48.578;-4.520;2023-03-01T16:02:42;11.82;;;6.05;;
76631;SDS011;65526;48.578;-4.520;2023-03-01T16:05:28;11.48;;;6.65;;
76631;SDS011;65526;48.578;-4.520;2023-03-01T16:08:00;9.95;;;5.82;;
76631;SDS011;65526;48.578;-4.520;2023-03-01T16:10:27;10.35;;;4.70;;
76631;SDS011;65526;48.578;-4.520;2023-03-01T16:12:53;9.20;;;5.28;;
76631;SDS011;65526;48.578;-4.520;2023-03-01T16:15:24;12.55;;;5.78;;
76631;SDS011;65526;48.578;-4.520;2023-03-01T16:18:00;11.80;;;5.85;;
76631;SDS011;65526;48.578;-4.520;2023-03-01T16:20:27;10.02;;;6.30;;
76631;SDS011;65526;48.578;-4.520;2023-03-01T16:22:59;15.23;;;7.25;;
76631;SDS011;65526;48.578;-4.520;2023-03-01T16:25:27;13.98;;;6.38;;
76631;SDS011;65526;48.578;-4.520;2023-03-01T16:27:54;9.68;;;6.38;;
76631;SDS011;65526;48.578;-4.520;2023-03-01T16:30:22;11.93;;;4.72;;
76631;SDS011;65526;48.578;-4.520;2023-03-01T16:32:49;8.48;;;5.10;;
76631;SDS011;65526;48.578;-4.520;2023-03-01T16:35:17;7.80;;;4.38;;
76631;SDS011;65526;48.578;-4.520;2023-03-01T16:37:46;6.57;;;4.63;;
76631;SDS011;65526;48.578;-4.520;2023-03-01T16:40:24;10.50;;;4.97;;
76631;SDS011;65526;48.578;-4.520;2023-03-01T16:42:53;10.00;;;4.95;;
76631;SDS011;65526;48.578;-4.520;2023-03-01T16:45:21;8.65;;;5.10;;
76631;SDS011;65526;48.578;-4.520;2023-03-01T16:47:47;8.00;;;4.93;;
76631;SDS011;65526;48.578;-4.520;2023-03-01T16:50:14;9.80;;;5.07;;
76631;SDS011;65526;48.578;-4.520;2023-03-01T16:52:40;9.63;;;5.32;;
76631;SDS011;65526;48.578;-4.520;2023-03-01T16:55:10;9.25;;;5.63;;
76631;SDS011;65526;48.578;-4.520;2023-03-01T16:57:37;11.73;;;5.22;;
76631;SDS011;65526;48.578;-4.520;2023-03-01T17:00:05;7.80;;;5.05;;
76631;SDS011;65526;48.578;-4.520;2023-03-01T17:02:34;7.80;;;4.82;;
76631;SDS011;65526;48.578;-4.520;2023-03-01T17:05:01;13.52;;;5.25;;
76631;SDS011;65526;48.578;-4.520;2023-03-01T17:07:31;7.40;;;4.47;;